createdAt,value
2023-04-16T00:04:33.172Z,18.33
2023-04-16T00:12:11.443Z,18.52
2023-04-16T00:19:45.497Z,17.50
2023-04-16T00:27:35.124Z,19.20
2023-04-16T00:35:11.646Z,20.33
2023-04-16T00:43:01.665Z,18.42
2023-04-16T00:50:55.016Z,21.23
2023-04-16T00:58:57.911Z,20.50
2023-04-16T01:06:43.861Z,21.85
2023-04-16T01:14:27.793Z,19.45
2023-04-16T01:30:03.461Z,21.15
2023-04-16T01:38:12.979Z,20.73
2023-04-16T01:46:28.652Z,18.30
2023-04-16T01:54:28.018Z,19.83
2023-04-16T02:02:16.219Z,20.58
2023-04-16T02:10:01.703Z,20.05
2023-04-16T02:26:01.925Z,20.90
2023-04-16T02:33:47.794Z,19.65
2023-04-16T02:41:30.451Z,18.95
2023-04-16T02:58:02.011Z,20.30
2023-04-16T03:05:40.327Z,21.58
2023-04-16T03:14:00.399Z,22.73
2023-04-16T03:22:20.834Z,21.77
2023-04-16T03:31:02.057Z,23.05
2023-04-16T03:38:45.140Z,23.60
2023-04-16T03:46:20.845Z,25.77
2023-04-16T03:54:16.045Z,22.77
2023-04-16T04:01:56.259Z,22.35
2023-04-16T04:09:47.588Z,21.42
2023-04-16T04:17:21.414Z,21.63
2023-04-16T04:25:27.894Z,20.17
2023-04-16T04:33:36.970Z,22.30
2023-04-16T04:41:15.539Z,21.80
2023-04-16T04:49:52.152Z,26.33
2023-04-16T04:57:27.619Z,22.58
2023-04-16T05:05:01.453Z,22.77
2023-04-16T05:12:40.333Z,21.17
2023-04-16T05:28:42.157Z,21.73
2023-04-16T05:52:48.864Z,21.13
2023-04-16T06:08:16.135Z,19.02
2023-04-16T06:15:51.765Z,17.97
2023-04-16T06:23:25.939Z,18.98
2023-04-16T06:31:01.902Z,17.33
2023-04-16T06:38:38.230Z,18.40
2023-04-16T06:46:14.010Z,17.15
2023-04-16T06:53:47.975Z,16.75
2023-04-16T07:01:23.831Z,18.30
2023-04-16T07:08:57.673Z,19.88
2023-04-16T07:16:33.193Z,18.80
2023-04-16T07:24:07.384Z,19.35
2023-04-16T07:31:43.699Z,17.63
2023-04-16T07:39:18.304Z,18.58
2023-04-16T07:46:54.066Z,16.25
2023-04-16T07:54:29.205Z,18.10
2023-04-16T08:02:06.296Z,15.55
2023-04-16T08:09:49.767Z,17.17
2023-04-16T08:17:25.550Z,16.58
2023-04-16T08:24:59.848Z,14.77
2023-04-16T08:32:35.828Z,14.70
2023-04-16T08:40:10.981Z,15.80
2023-04-16T08:55:42.431Z,17.20
2023-04-16T09:03:19.977Z,14.93
2023-04-16T09:10:55.082Z,15.65
2023-04-16T09:26:06.661Z,15.25
2023-04-16T09:41:17.964Z,13.38
2023-04-16T09:48:53.433Z,12.25
2023-04-16T09:56:27.500Z,12.07
2023-04-16T10:04:09.963Z,11.93
2023-04-16T10:11:44.631Z,13.85
2023-04-16T10:19:20.113Z,11.70
2023-04-16T10:34:48.164Z,14.10
2023-04-16T10:42:22.034Z,17.17
2023-04-16T10:49:57.454Z,18.20
2023-04-16T10:57:32.081Z,17.23
2023-04-16T11:05:08.488Z,17.55
2023-04-16T11:12:45.153Z,17.63
2023-04-16T11:20:22.282Z,18.63
2023-04-16T11:27:57.355Z,20.38
2023-04-16T11:43:24.564Z,18.92
2023-04-16T11:51:00.219Z,19.40
2023-04-16T11:58:34.228Z,18.73
2023-04-16T12:13:44.962Z,15.18
2023-04-16T12:21:20.582Z,17.35
2023-04-16T12:28:54.605Z,14.18
2023-04-16T12:36:30.143Z,14.63
2023-04-16T12:44:06.813Z,12.65
2023-04-16T12:51:43.108Z,11.98
2023-04-16T12:59:20.990Z,11.32
2023-04-16T13:06:56.973Z,12.35
2023-04-16T13:14:31.526Z,10.82
2023-04-16T13:29:58.503Z,10.40
2023-04-16T13:37:34.298Z,9.82
2023-04-16T13:45:09.417Z,8.07
2023-04-16T13:52:44.700Z,9.98
2023-04-16T14:00:19.873Z,9.45
2023-04-16T14:07:55.410Z,9.70
2023-04-16T14:15:30.058Z,11.52
2023-04-16T14:23:05.388Z,11.10
2023-04-16T14:30:39.304Z,9.68
2023-04-16T14:38:14.751Z,9.45
2023-04-16T14:45:48.820Z,9.57
2023-04-16T14:53:24.515Z,10.53
2023-04-16T15:00:59.449Z,10.00
2023-04-16T15:16:09.751Z,7.07
2023-04-16T15:23:45.049Z,6.78
2023-04-16T15:31:20.805Z,6.72
2023-04-16T15:38:56.230Z,5.15
2023-04-16T15:46:32.023Z,6.18
2023-04-16T15:54:07.527Z,6.40
2023-04-16T16:01:41.427Z,6.38
2023-04-16T16:09:16.769Z,5.28
2023-04-16T16:16:50.702Z,6.13
2023-04-16T16:24:26.492Z,7.55
2023-04-16T16:32:00.495Z,6.55
2023-04-16T16:39:38.549Z,8.10
2023-04-16T16:47:13.060Z,8.13
2023-04-16T16:54:48.412Z,9.30
2023-04-16T17:02:22.706Z,9.90
2023-04-16T17:10:01.365Z,9.80
2023-04-16T17:17:37.170Z,9.15
2023-04-16T17:33:28.052Z,9.65
2023-04-16T17:41:03.319Z,8.90
2023-04-16T17:48:37.475Z,9.40
2023-04-16T17:56:13.814Z,10.73
2023-04-16T18:03:47.902Z,8.70
2023-04-16T18:11:23.668Z,8.57
2023-04-16T18:18:57.669Z,7.65
2023-04-16T18:26:35.615Z,8.93
2023-04-16T18:34:10.176Z,9.23
2023-04-16T18:41:47.814Z,10.93
2023-04-16T18:49:21.991Z,8.93
2023-04-16T18:56:59.684Z,9.27
2023-04-16T19:04:38.160Z,8.23
2023-04-16T19:12:13.597Z,9.35
2023-04-16T19:19:47.464Z,8.15
2023-04-16T19:27:22.820Z,8.20
2023-04-16T19:34:56.653Z,8.65
2023-04-16T19:42:32.091Z,8.73
2023-04-16T19:50:06.667Z,10.38
2023-04-16T19:57:42.107Z,12.05
2023-04-16T20:05:16.421Z,7.60
2023-04-16T20:12:52.157Z,6.70
2023-04-16T20:20:28.558Z,7.90
2023-04-16T20:28:03.903Z,7.85
2023-04-16T20:35:37.911Z,7.35
2023-04-16T20:43:14.226Z,7.80
2023-04-16T20:50:48.300Z,7.55
2023-04-16T20:58:23.571Z,8.35
2023-04-16T21:05:57.541Z,6.97
2023-04-16T21:13:33.030Z,9.03
2023-04-16T21:21:07.468Z,7.80
2023-04-16T21:28:43.222Z,8.02
2023-04-16T21:36:17.268Z,7.65
2023-04-16T21:43:52.485Z,7.53
2023-04-16T21:51:29.944Z,8.15
2023-04-16T21:59:05.473Z,7.80
2023-04-16T22:06:40.767Z,7.45
2023-04-16T22:14:17.996Z,8.07
2023-04-16T22:21:52.176Z,7.60
2023-04-16T22:29:27.826Z,7.87
2023-04-16T22:37:03.619Z,8.95
2023-04-16T22:44:39.125Z,8.00
2023-04-16T22:52:13.416Z,9.60
2023-04-16T22:59:50.325Z,9.05
2023-04-16T23:07:24.262Z,8.60
2023-04-16T23:15:00.963Z,8.87
2023-04-16T23:22:35.189Z,9.45
2023-04-16T23:30:14.742Z,10.20
2023-04-16T23:37:48.915Z,8.85
2023-04-16T23:45:24.620Z,9.23
2023-04-16T23:52:58.700Z,10.48
